Time;durP1;ratioP1;P1;durP2;ratioP2;P2;SDS_P1;SDS_P2;PMS_P1;PMS_P2;Temp;Humidity;BMP_temperature;BMP_pressure;BME280_temperature;BME280_humidity;BME280_pressure;Samples;Min_cycle;Max_cycle;Signal;HPM_P1;HPM_P2
2023/11/15 00:01:07;;;;;;;12.30;2.37;;;;;;;9.72;100.00;98969.84;5061783;56;1138776;-74
2023/11/15 00:06:14;;;;;;;11.13;2.70;;;;;;;9.70;100.00;98972.63;5111995;56;1139070;-74
2023/11/15 00:11:20;;;;;;;15.20;3.20;;;;;;;9.70;100.00;98967.84;4963778;57;1138660;-70
2023/11/15 00:16:26;;;;;;;13.40;2.93;;;;;;;9.69;100.00;98980.22;5158536;56;1138643;-71
2023/11/15 00:21:32;;;;;;;9.90;2.33;;;;;;;9.68;100.00;98969.80;5133942;56;1259123;-72
2023/11/15 00:26:38;;;;;;;12.15;2.70;;;;;;;9.66;100.00;98975.72;5138304;56;1136827;-72
2023/11/15 00:31:43;;;;;;;9.73;2.33;;;;;;;9.62;100.00;98986.27;5138191;56;1139124;-73
2023/11/15 00:36:49;;;;;;;11.20;2.57;;;;;;;9.62;100.00;98986.27;5079122;56;1136810;-74
2023/11/15 00:41:54;;;;;;;11.17;2.63;;;;;;;9.60;100.00;98978.48;5053311;56;1138784;-71
2023/11/15 00:47:00;;;;;;;9.10;2.80;;;;;;;9.57;100.00;98988.02;5053293;57;1138777;-70
2023/11/15 00:52:08;;;;;;;9.57;2.63;;;;;;;9.55;100.00;98982.06;5072556;57;1136507;-72
2023/11/15 00:57:14;;;;;;;9.10;2.27;;;;;;;9.53;100.00;98985.33;5053497;56;1136369;-71
2023/11/15 01:02:21;;;;;;;10.10;2.80;;;;;;;9.53;100.00;98989.30;5057713;56;1136474;-74
2023/11/15 01:07:27;;;;;;;16.20;3.20;;;;;;;9.50;100.00;98998.33;5157818;56;1138706;-75
2023/11/15 01:12:32;;;;;;;13.47;2.30;;;;;;;9.50;100.00;98997.50;5136288;56;1260135;-73
2023/11/15 01:17:38;;;;;;;10.23;2.65;;;;;;;9.46;100.00;98990.40;5067555;56;1138834;-73
2023/11/15 01:22:44;;;;;;;12.83;2.67;;;;;;;9.43;100.00;98992.02;5078153;56;1138738;-70
2023/11/15 01:27:51;;;;;;;10.27;2.53;;;;;;;9.41;100.00;98998.41;5157829;56;1138866;-73
2023/11/15 01:32:57;;;;;;;9.77;2.53;;;;;;;9.39;100.00;98997.23;5124883;56;1138893;-74
2023/11/15 01:38:03;;;;;;;8.03;2.30;;;;;;;9.39;100.00;98992.45;5131306;56;1137192;-74
2023/11/15 01:43:10;;;;;;;14.10;2.47;;;;;;;9.38;100.00;98994.73;5159115;56;1136730;-73
2023/11/15 01:48:17;;;;;;;13.38;2.70;;;;;;;9.37;100.00;98989.13;5138807;56;1139062;-74
2023/11/15 01:53:23;;;;;;;12.83;3.70;;;;;;;9.36;100.00;98994.89;5138843;56;1138898;-75
2023/11/15 01:58:28;;;;;;;10.03;2.00;;;;;;;9.33;100.00;98987.75;5157028;56;1244820;-75
2023/11/15 02:03:34;;;;;;;10.68;2.42;;;;;;;9.33;100.00;98998.30;5138653;56;1138822;-72
2023/11/15 02:08:39;;;;;;;17.10;3.77;;;;;;;9.30;100.00;98994.18;5139037;56;1138701;-73
2023/11/15 02:13:45;;;;;;;9.57;2.73;;;;;;;9.29;100.00;99000.44;5070328;56;1138817;-73
2023/11/15 02:18:51;;;;;;;5.30;1.70;;;;;;;9.29;100.00;98996.96;5063445;56;1136644;-70
2023/11/15 02:23:57;;;;;;;12.63;3.13;;;;;;;9.29;100.00;99004.88;5043167;57;1136465;-73
2023/11/15 02:29:03;;;;;;;12.37;2.57;;;;;;;9.28;100.00;99001.89;5042230;57;1138542;-73
2023/11/15 02:34:09;;;;;;;7.60;2.63;;;;;;;9.27;100.00;99014.25;5096016;56;1138911;-74
2023/11/15 02:39:15;;;;;;;11.93;2.97;;;;;;;9.26;100.00;99019.67;5127676;56;1136923;-74
2023/11/15 02:44:20;;;;;;;9.90;2.83;;;;;;;9.26;100.00;99020.99;5127461;56;1138560;-70
2023/11/15 02:49:26;;;;;;;8.70;2.47;;;;;;;9.26;100.00;99017.87;5121109;56;1137160;-72
2023/11/15 02:54:31;;;;;;;7.40;2.77;;;;;;;9.24;100.00;99011.08;5042165;57;1137109;-71
2023/11/15 02:59:37;;;;;;;11.83;2.33;;;;;;;9.24;100.00;99018.98;5041365;57;1136523;-73
2023/11/15 03:04:42;;;;;;;9.08;1.90;;;;;;;9.23;100.00;99011.56;5086102;56;1138781;-73
2023/11/15 03:09:48;;;;;;;11.80;2.35;;;;;;;9.25;100.00;99018.84;5040050;57;1136516;-70
2023/11/15 03:14:53;;;;;;;10.63;2.40;;;;;;;9.23;100.00;99024.75;5022883;57;1138984;-72
2023/11/15 03:19:59;;;;;;;11.13;2.20;;;;;;;9.21;100.00;99025.87;5126876;56;1138798;-74
2023/11/15 03:25:06;;;;;;;11.77;2.40;;;;;;;9.17;100.00;99026.64;5145893;56;1138643;-73
2023/11/15 03:30:15;;;;;;;6.57;2.40;;;;;;;9.15;100.00;99036.05;5127371;56;1138921;-71
2023/11/15 03:35:22;;;;;;;7.07;2.40;;;;;;;9.14;100.00;99040.98;5074322;56;1136713;-72
2023/11/15 03:40:27;;;;;;;8.07;2.70;;;;;;;9.12;100.00;99043.42;5062981;57;1136726;-74
2023/11/15 03:45:33;;;;;;;12.13;2.90;;;;;;;9.06;100.00;99051.41;5066904;56;1136694;-74
2023/11/15 03:50:38;;;;;;;8.63;2.23;;;;;;;9.06;100.00;99058.49;5127730;56;1138530;-73
2023/11/15 03:55:44;;;;;;;8.40;2.98;;;;;;;9.04;100.00;99064.39;5147699;56;1136868;-73
2023/11/15 04:00:49;;;;;;;8.60;2.50;;;;;;;9.04;100.00;99070.50;5127856;56;1136617;-74
2023/11/15 04:05:55;;;;;;;14.87;3.23;;;;;;;9.05;100.00;99068.70;5124837;56;1136611;-73
2023/11/15 04:11:00;;;;;;;12.33;2.73;;;;;;;9.05;100.00;99071.33;5147319;56;1138643;-70
2023/11/15 04:16:07;;;;;;;5.57;2.20;;;;;;;9.08;100.00;99080.28;5041134;57;1138675;-75
2023/11/15 04:21:13;;;;;;;15.73;3.17;;;;;;;9.12;100.00;99086.45;5133874;56;1136493;-71
2023/11/15 04:26:20;;;;;;;10.50;2.83;;;;;;;9.17;100.00;99082.03;5158313;56;1138823;-75
2023/11/15 04:31:25;;;;;;;7.43;2.63;;;;;;;9.15;100.00;99084.02;5138637;56;1138855;-72
2023/11/15 04:36:35;;;;;;;10.10;2.85;;;;;;;9.11;100.00;99093.19;4981632;57;1136790;-72
2023/11/15 04:41:40;;;;;;;13.10;2.93;;;;;;;9.08;100.00;99090.83;5073926;56;1138732;-73
2023/11/15 04:46:46;;;;;;;12.55;2.77;;;;;;;9.03;100.00;99088.61;5158440;56;1138854;-71
2023/11/15 04:51:51;;;;;;;8.03;3.47;;;;;;;8.98;100.00;99095.31;5137887;56;1138759;-75
2023/11/15 04:56:57;;;;;;;7.83;3.57;;;;;;;8.97;100.00;99094.97;5137784;56;1136656;-72
2023/11/15 05:02:03;;;;;;;9.17;2.40;;;;;;;8.95;100.00;99103.02;5157838;56;1136466;-73
2023/11/15 05:07:08;;;;;;;10.90;2.73;;;;;;;8.94;100.00;99113.22;5053385;56;1136635;-70
2023/11/15 05:12:19;;;;;;;12.37;3.57;;;;;;;8.96;100.00;99113.08;5054211;57;1138683;-73
2023/11/15 05:17:21;;;;;;;11.70;2.77;;;;;;;8.96;100.00;99116.55;5072529;57;1138624;-72
2023/11/15 05:22:27;;;;;;;13.07;2.53;;;;;;;8.93;100.00;99125.23;5047342;57;1190246;-73
2023/11/15 05:27:34;;;;;;;8.18;2.95;;;;;;;8.93;100.00;99125.23;5102564;56;1228951;-73
2023/11/15 05:32:39;;;;;;;3.20;1.70;;;;;;;8.98;100.00;99140.14;5113218;56;1136648;-72
2023/11/15 05:37:45;;;;;;;6.33;1.82;;;;;;;8.91;100.00;99155.69;5128981;56;1136949;-71
2023/11/15 05:42:51;;;;;;;9.37;1.80;;;;;;;8.84;100.00;99161.20;5072028;55;1137083;-73
2023/11/15 05:47:56;;;;;;;2.83;1.50;;;;;;;8.79;100.00;99173.95;5098020;56;1136565;-71
2023/11/15 05:53:02;;;;;;;5.03;2.07;;;;;;;8.70;100.00;99174.33;5077159;56;1137355;-71
2023/11/15 05:58:07;;;;;;;7.83;2.20;;;;;;;8.65;100.00;99175.70;5057315;55;1137363;-75
2023/11/15 06:03:13;;;;;;;5.70;2.70;;;;;;;8.57;100.00;99180.34;5060307;56;1236445;-74
2023/11/15 06:08:19;;;;;;;7.90;2.60;;;;;;;8.55;100.00;99194.65;5088103;56;1223301;-73
2023/11/15 06:13:25;;;;;;;11.50;3.03;;;;;;;8.52;100.00;99206.78;5041217;57;1223025;-75
2023/11/15 06:18:31;;;;;;;9.70;2.83;;;;;;;8.48;100.00;99227.30;5072280;56;1236936;-71
2023/11/15 06:23:37;;;;;;;5.37;2.40;;;;;;;8.41;100.00;99236.70;5100956;56;1251513;-74
2023/11/15 06:28:42;;;;;;;12.20;4.70;;;;;;;8.35;100.00;99242.53;5101522;56;1239373;-74
2023/11/15 06:33:48;;;;;;;12.80;5.37;;;;;;;8.30;100.00;99241.58;5003588;57;1251037;-73
2023/11/15 06:38:53;;;;;;;9.03;4.60;;;;;;;8.30;100.00;99252.59;5059479;56;1139746;-74
2023/11/15 06:43:59;;;;;;;15.13;4.33;;;;;;;8.31;100.00;99251.63;5073923;57;1136917;-73
2023/11/15 06:49:06;;;;;;;7.27;2.97;;;;;;;8.33;100.00;99267.69;5117961;56;1252368;-73
2023/11/15 06:54:11;;;;;;;7.73;3.20;;;;;;;8.36;100.00;99275.33;5129935;55;1254108;-72
2023/11/15 06:59:17;;;;;;;7.63;2.23;;;;;;;8.38;100.00;99275.20;5084796;56;1251547;-76
2023/11/15 07:04:23;;;;;;;4.67;1.97;;;;;;;8.40;100.00;99285.12;5102858;56;1253509;-69
2023/11/15 07:09:28;;;;;;;7.87;1.70;;;;;;;8.43;100.00;99294.05;5055903;56;1136819;-70
2023/11/15 07:14:36;;;;;;;8.08;1.77;;;;;;;8.45;100.00;99300.02;5066555;57;1223359;-76
2023/11/15 07:19:41;;;;;;;6.47;1.98;;;;;;;8.48;100.00;99312.09;5059422;57;1136876;-72
2023/11/15 07:24:47;;;;;;;5.13;1.90;;;;;;;8.52;100.00;99310.38;5051462;57;1136711;-72
2023/11/15 07:29:53;;;;;;;6.90;2.73;;;;;;;8.58;100.00;99314.25;4891030;58;1181766;-70
2023/11/15 07:34:58;;;;;;;7.10;2.47;;;;;;;8.59;100.00;99325.14;5071671;56;1136726;-74
2023/11/15 07:40:10;;;;;;;8.07;2.27;;;;;;;8.61;100.00;99325.37;5077054;56;1136550;-74
2023/11/15 07:45:12;;;;;;;6.20;1.90;;;;;;;8.63;100.00;99338.41;5126386;56;1136661;-75
2023/11/15 07:50:17;;;;;;;6.00;2.97;;;;;;;8.61;100.00;99345.13;5127731;56;1136788;-74
2023/11/15 07:55:23;;;;;;;10.77;3.07;;;;;;;8.60;100.00;99354.00;5085902;55;1164648;-76
2023/11/15 08:00:28;;;;;;;11.40;2.27;;;;;;;8.64;100.00;99362.00;5126713;55;1138601;-74
2023/11/15 08:05:36;;;;;;;9.33;1.90;;;;;;;8.62;100.00;99369.69;5094973;56;1215214;-74
2023/11/15 08:10:48;;;;;;;5.20;1.77;;;;;;;8.60;100.00;99372.94;5084490;56;1136855;-71
2023/11/15 08:15:49;;;;;;;3.92;1.77;;;;;;;8.59;100.00;99389.72;5034576;56;1136718;-71
2023/11/15 08:20:56;;;;;;;5.17;1.67;;;;;;;8.58;100.00;99390.20;5127745;55;1136991;-72
2023/11/15 08:26:02;;;;;;;6.43;2.87;;;;;;;8.61;100.00;99393.05;5138076;55;1137082;-71
2023/11/15 08:31:08;;;;;;;4.58;2.25;;;;;;;8.59;100.00;99397.14;5125588;55;1137019;-75
2023/11/15 08:36:13;;;;;;;7.83;2.07;;;;;;;8.55;100.00;99407.62;5071885;56;1136793;-72
2023/11/15 08:41:19;;;;;;;8.10;2.80;;;;;;;8.57;100.00;99423.27;5120551;55;1136575;-73
2023/11/15 08:46:26;;;;;;;5.80;3.00;;;;;;;8.54;100.00;99430.15;5040989;56;1136726;-71
2023/11/15 08:51:32;;;;;;;6.53;2.30;;;;;;;8.53;100.00;99449.08;5046309;56;1136568;-70
2023/11/15 08:56:45;;;;;;;7.93;3.37;;;;;;;8.52;100.00;99457.95;4952219;57;1136971;-66
2023/11/15 09:01:47;;;;;;;10.28;4.75;;;;;;;8.47;100.00;99461.45;5061672;56;1136908;-66
2023/11/15 09:06:54;;;;;;;11.73;5.28;;;;;;;8.43;100.00;99467.45;5050075;56;1138712;-70
2023/11/15 09:12:03;;;;;;;12.60;3.83;;;;;;;8.40;100.00;99482.20;5126280;56;1138948;-73
2023/11/15 09:17:17;;;;;;;8.57;3.73;;;;;;;8.41;100.00;99489.63;5145877;56;1138757;-74
2023/11/15 09:22:17;;;;;;;7.57;2.67;;;;;;;8.38;100.00;99505.23;5111855;56;1137096;-73
2023/11/15 09:27:24;;;;;;;13.40;4.33;;;;;;;8.38;100.00;99510.98;4961276;57;1136871;-74
2023/11/15 09:32:29;;;;;;;3.80;2.47;;;;;;;8.38;100.00;99525.00;5081939;56;1139034;-74
2023/11/15 09:37:35;;;;;;;5.50;2.63;;;;;;;8.39;100.00;99525.84;5032046;56;1136646;-73
2023/11/15 09:42:46;;;;;;;2.83;2.17;;;;;;;8.38;100.00;99529.43;5012239;57;1136873;-73
2023/11/15 09:47:56;;;;;;;4.10;2.42;;;;;;;8.34;100.00;99537.23;5120408;56;1137027;-74
2023/11/15 09:53:05;;;;;;;3.00;1.87;;;;;;;8.32;100.00;99547.89;5058515;57;1136725;-74
2023/11/15 09:58:13;;;;;;;2.20;1.60;;;;;;;8.32;100.00;99559.75;5079603;56;1136514;-73
2023/11/15 10:03:19;;;;;;;2.47;1.93;;;;;;;8.31;100.00;99575.17;5098588;56;1136817;-74
2023/11/15 10:08:26;;;;;;;2.30;1.50;;;;;;;8.31;100.00;99576.97;5143774;56;1136808;-76
2023/11/15 10:13:32;;;;;;;3.97;2.97;;;;;;;8.33;100.00;99589.08;5143542;56;1136803;-73
2023/11/15 10:18:38;;;;;;;9.50;3.37;;;;;;;8.29;100.00;99588.95;5129661;56;1199796;-75
2023/11/15 10:23:44;;;;;;;3.05;1.80;;;;;;;8.29;100.00;99595.53;5077781;57;1136748;-72
2023/11/15 10:28:49;;;;;;;6.10;2.67;;;;;;;8.25;100.00;99598.05;5134396;55;1136601;-75
2023/11/15 10:33:58;;;;;;;6.77;3.13;;;;;;;8.24;100.00;99611.38;5081135;56;1136594;-74
2023/11/15 10:39:05;;;;;;;6.77;4.00;;;;;;;8.21;100.00;99612.94;5073446;57;1136923;-74
2023/11/15 10:44:12;;;;;;;12.37;3.77;;;;;;;8.15;100.00;99623.97;5029034;57;1136775;-70
2023/11/15 10:49:21;;;;;;;5.77;2.30;;;;;;;8.13;100.00;99624.92;5045359;57;1138706;-68
2023/11/15 10:54:27;;;;;;;6.57;3.30;;;;;;;8.15;100.00;99626.13;5075796;57;1136462;-70
2023/11/15 10:59:37;;;;;;;7.37;3.10;;;;;;;8.20;100.00;99643.72;5054788;57;1136846;-68
2023/11/15 11:04:44;;;;;;;3.97;2.37;;;;;;;8.23;100.00;99650.53;5056176;57;1136973;-69
2023/11/15 11:10:24;;;;;;;4.42;2.40;;;;;;;8.24;100.00;99655.68;5056379;56;1137031;-68
2023/11/15 11:15:32;;;;;;;4.10;2.63;;;;;;;8.22;100.00;99665.50;5053184;56;1136674;-73
2023/11/15 11:20:40;;;;;;;3.77;3.33;;;;;;;8.25;100.00;99681.03;4973026;58;1136682;-73
2023/11/15 11:25:46;;;;;;;10.63;7.60;;;;;;;8.25;100.00;99691.57;4973670;58;1138306;-74
2023/11/15 11:31:19;;;;;;;8.38;5.25;;;;;;;8.23;100.00;99704.53;4992574;57;1138770;-73
2023/11/15 11:36:53;;;;;;;4.60;3.30;;;;;;;8.21;100.00;99710.40;4979596;57;1136755;-74
2023/11/15 11:41:58;;;;;;;6.67;3.72;;;;;;;8.22;100.00;99722.13;4999482;57;1136863;-73
2023/11/15 11:47:06;;;;;;;8.27;4.37;;;;;;;8.25;100.00;99735.55;5050675;57;1136674;-74
2023/11/15 11:52:13;;;;;;;9.17;4.70;;;;;;;8.31;100.00;99745.56;4994932;57;1136467;-69
2023/11/15 11:57:28;;;;;;;8.87;4.53;;;;;;;8.32;100.00;99761.28;5026162;57;1136689;-69
2023/11/15 12:02:37;;;;;;;6.90;3.10;;;;;;;8.31;100.00;99771.44;5024441;57;1136496;-73
2023/11/15 12:07:48;;;;;;;12.55;4.08;;;;;;;8.37;100.00;99776.73;5050992;57;1136791;-74
2023/11/15 12:13:06;;;;;;;6.92;3.42;;;;;;;8.40;100.00;99779.13;5015222;57;1138721;-73
2023/11/15 12:18:15;;;;;;;6.07;3.30;;;;;;;8.42;100.00;99785.09;5000375;57;1136768;-73
2023/11/15 12:23:23;;;;;;;9.07;4.90;;;;;;;8.40;100.00;99797.06;5031059;57;1136785;-74
2023/11/15 12:28:31;;;;;;;6.53;3.50;;;;;;;8.42;100.00;99806.17;5053302;57;1136586;-74
2023/11/15 12:33:36;;;;;;;7.10;3.70;;;;;;;8.45;100.00;99823.90;5010345;57;1136740;-73
2023/11/15 12:38:55;;;;;;;15.18;6.55;;;;;;;8.44;100.00;99831.44;5113601;56;1142538;-75
2023/11/15 12:44:04;;;;;;;14.90;7.83;;;;;;;8.46;100.00;99837.91;5133876;56;1138727;-75
2023/11/15 12:49:14;;;;;;;23.17;10.03;;;;;;;8.53;100.00;99848.81;5126832;56;1138692;-75
2023/11/15 12:54:20;;;;;;;28.90;22.70;;;;;;;8.45;100.00;99861.27;5124364;56;1140964;-73
2023/11/15 12:59:30;;;;;;;20.73;15.70;;;;;;;8.41;100.00;99868.57;5059864;57;1140898;-73
2023/11/15 13:04:53;;;;;;;10.80;5.60;;;;;;;8.43;100.00;99890.84;5114666;56;1140916;-76
2023/11/15 13:09:58;;;;;;;8.73;6.10;;;;;;;8.40;100.00;99887.97;5097838;56;1138574;-74
2023/11/15 13:15:08;;;;;;;10.73;7.40;;;;;;;8.31;100.00;99903.16;5144066;55;1136779;-75
2023/11/15 13:20:15;;;;;;;134.03;73.63;;;;;;;8.22;100.00;99903.89;5125744;56;1138773;-74
2023/11/15 13:25:20;;;;;;;26.23;20.40;;;;;;;8.21;100.00;99905.33;5069846;56;1143131;-74
2023/11/15 13:30:26;;;;;;;15.23;11.53;;;;;;;8.12;100.00;99920.02;5110878;56;1140754;-77
2023/11/15 13:35:32;;;;;;;7.13;4.13;;;;;;;8.11;100.00;99927.56;5064029;56;1140909;-74
2023/11/15 13:40:44;;;;;;;9.38;7.83;;;;;;;8.09;100.00;99943.52;5070076;56;1136566;-74
2023/11/15 13:45:50;;;;;;;100.95;57.20;;;;;;;8.09;100.00;99950.58;5114824;56;1136789;-73
2023/11/15 13:50:55;;;;;;;64.20;35.83;;;;;;;8.09;100.00;99971.64;5153471;55;1143082;-75
2023/11/15 13:56:02;;;;;;;20.00;9.50;;;;;;;8.06;100.00;99983.24;5127175;56;1141006;-75
2023/11/15 14:01:08;;;;;;;122.83;68.73;;;;;;;8.05;100.00;99984.67;5128228;56;1138601;-76
2023/11/15 14:06:13;;;;;;;141.40;80.13;;;;;;;8.01;100.00;99991.12;5108365;56;1143089;-68
2023/11/15 14:11:19;;;;;;;28.37;15.20;;;;;;;7.96;100.00;99998.52;5057349;56;1142864;-70
2023/11/15 14:16:25;;;;;;;9.53;6.07;;;;;;;7.97;100.00;100011.57;5096158;56;1140695;-75
2023/11/15 14:21:31;;;;;;;133.17;77.30;;;;;;;7.99;100.00;100014.94;5077051;56;1138970;-73
2023/11/15 14:26:37;;;;;;;124.77;74.90;;;;;;;7.96;100.00;100037.53;5089290;56;1145136;-75
2023/11/15 14:31:44;;;;;;;31.12;20.30;;;;;;;7.96;100.00;100041.96;5110588;56;1145377;-77
2023/11/15 14:36:51;;;;;;;8.73;5.85;;;;;;;7.92;100.00;100046.64;5167611;55;1143062;-75
2023/11/15 14:41:59;;;;;;;9.43;6.08;;;;;;;7.99;100.00;100062.81;5097132;55;1138843;-73
2023/11/15 14:47:06;;;;;;;7.25;6.30;;;;;;;7.98;100.00;100071.19;5042124;56;1138845;-75
2023/11/15 14:52:12;;;;;;;9.97;8.97;;;;;;;7.93;100.00;100083.03;5061637;56;1138574;-76
2023/11/15 14:57:20;;;;;;;306.80;173.27;;;;;;;7.94;100.00;100093.45;5042482;57;1138819;-77
2023/11/15 15:02:25;;;;;;;80.17;54.17;;;;;;;7.93;100.00;100094.87;5101404;56;1147027;-74
2023/11/15 15:07:31;;;;;;;20.57;12.97;;;;;;;7.85;100.00;100103.32;5146443;56;1142965;-74
2023/11/15 15:12:37;;;;;;;62.20;34.67;;;;;;;7.75;100.00;100123.38;5126277;56;1142817;-73
2023/11/15 15:17:43;;;;;;;38.17;24.10;;;;;;;7.75;100.00;100132.12;5123465;56;1142755;-74
2023/11/15 15:22:50;;;;;;;16.80;10.03;;;;;;;7.74;100.00;100143.59;5146269;56;1142960;-74
2023/11/15 15:27:56;;;;;;;15.47;10.63;;;;;;;7.78;100.00;100145.54;5054723;56;1142980;-76
2023/11/15 15:33:07;;;;;;;18.17;9.77;;;;;;;7.86;100.00;100155.50;5028103;57;1142923;-77
2023/11/15 15:38:12;;;;;;;14.53;8.57;;;;;;;7.85;100.00;100166.51;5060109;57;1140636;-73
2023/11/15 15:43:19;;;;;;;15.37;7.97;;;;;;;7.83;100.00;100179.41;5108738;56;1140739;-74
2023/11/15 15:48:25;;;;;;;13.63;7.83;;;;;;;7.79;100.00;100187.19;5118459;56;1140785;-74
2023/11/15 15:53:30;;;;;;;29.93;18.90;;;;;;;7.71;100.00;100201.72;5153868;55;1140739;-73
2023/11/15 15:58:36;;;;;;;43.80;20.73;;;;;;;7.70;100.00;100210.56;5082420;56;1143083;-73
2023/11/15 16:03:41;;;;;;;17.10;9.43;;;;;;;7.75;100.00;100216.35;5078592;55;1142994;-75
2023/11/15 16:08:47;;;;;;;9.73;6.43;;;;;;;7.69;100.00;100226.46;5119993;55;1140887;-76
2023/11/15 16:13:53;;;;;;;13.98;7.78;;;;;;;7.64;100.00;100235.98;5157268;55;1138874;-74
2023/11/15 16:18:59;;;;;;;27.40;11.78;;;;;;;7.63;100.00;100247.49;5126207;56;1140821;-75
2023/11/15 16:24:05;;;;;;;23.70;10.93;;;;;;;7.64;100.00;100271.99;5135233;55;1142961;-74
2023/11/15 16:29:14;;;;;;;19.17;9.93;;;;;;;7.64;100.00;100271.99;5155870;55;1142993;-76
2023/11/15 16:34:19;;;;;;;16.00;9.33;;;;;;;7.67;100.00;100282.31;5133210;55;1140822;-75
2023/11/15 16:39:24;;;;;;;23.17;12.40;;;;;;;7.58;100.00;100300.06;5139979;56;1140867;-76
2023/11/15 16:44:33;;;;;;;22.60;11.57;;;;;;;7.54;100.00;100302.53;5144009;56;1143080;-75
2023/11/15 16:49:37;;;;;;;20.67;10.57;;;;;;;7.56;100.00;100306.75;5041577;57;1143218;-74
2023/11/15 16:54:43;;;;;;;19.33;11.90;;;;;;;7.61;100.00;100311.23;5041447;57;1143224;-74
2023/11/15 16:59:49;;;;;;;16.17;9.13;;;;;;;7.54;100.00;100315.69;5047173;56;1143191;-75
2023/11/15 17:04:55;;;;;;;28.57;17.42;;;;;;;7.49;100.00;100320.41;5131163;56;1140641;-74
2023/11/15 17:10:00;;;;;;;22.15;13.62;;;;;;;7.50;100.00;100329.99;5117832;56;1143358;-74
2023/11/15 17:15:07;;;;;;;17.93;8.93;;;;;;;7.42;100.00;100342.37;5125827;55;1143219;-74
2023/11/15 17:20:13;;;;;;;18.90;10.50;;;;;;;7.43;100.00;100344.05;5103081;55;1141232;-75
2023/11/15 17:25:19;;;;;;;66.00;35.77;;;;;;;7.29;100.00;100355.98;5042100;57;1142721;-73
2023/11/15 17:30:25;;;;;;;166.47;91.13;;;;;;;7.21;100.00;100370.09;4959070;57;1140939;-75
2023/11/15 17:35:31;;;;;;;91.90;47.97;;;;;;;7.07;100.00;100373.63;5085470;56;1142819;-74
2023/11/15 17:40:37;;;;;;;43.30;22.50;;;;;;;7.09;100.00;100377.48;5065213;56;1142892;-75
2023/11/15 17:45:43;;;;;;;48.35;24.02;;;;;;;7.02;100.00;100392.83;5040709;57;1143164;-75
2023/11/15 17:50:54;;;;;;;54.43;25.87;;;;;;;6.96;100.00;100399.31;5061542;57;1143076;-74
2023/11/15 17:55:55;;;;;;;63.45;32.35;;;;;;;6.97;100.00;100408.05;5040975;57;1142996;-73
2023/11/15 18:01:02;;;;;;;69.90;34.70;;;;;;;6.99;100.00;100420.16;5067195;56;1142975;-75
2023/11/15 18:06:08;;;;;;;64.13;32.50;;;;;;;6.94;100.00;100430.59;5142708;56;1142843;-72
2023/11/15 18:11:14;;;;;;;48.23;25.83;;;;;;;6.70;100.00;100438.26;5043310;56;1140866;-73
2023/11/15 18:16:20;;;;;;;50.47;25.80;;;;;;;6.50;100.00;100436.87;5084342;56;1141004;-74
2023/11/15 18:21:25;;;;;;;105.03;33.97;;;;;;;6.33;100.00;100458.91;5147067;56;1140804;-74
2023/11/15 18:26:32;;;;;;;79.47;30.17;;;;;;;6.16;100.00;100463.03;5095879;56;1142968;-74
2023/11/15 18:31:38;;;;;;;85.73;32.90;;;;;;;6.07;100.00;100460.97;5042486;56;1140897;-76
2023/11/15 18:36:44;;;;;;;100.18;34.67;;;;;;;6.03;100.00;100471.73;5113964;56;1143152;-76
2023/11/15 18:41:52;;;;;;;80.40;27.80;;;;;;;5.97;100.00;100461.96;5101246;55;1145294;-74
2023/11/15 18:46:57;;;;;;;79.07;26.07;;;;;;;6.07;100.00;100461.44;5039444;56;1143097;-75
2023/11/15 18:52:03;;;;;;;66.20;23.10;;;;;;;6.16;100.00;100468.28;5104682;56;1143002;-74
2023/11/15 18:57:15;;;;;;;48.67;16.20;;;;;;;6.23;100.00;100472.70;5147051;56;1140918;-75
2023/11/15 19:02:17;;;;;;;33.53;13.77;;;;;;;6.22;100.00;100482.37;5124581;56;1140698;-74
2023/11/15 19:07:23;;;;;;;24.37;11.93;;;;;;;6.15;100.00;100478.88;5051439;56;1140920;-74
2023/11/15 19:12:29;;;;;;;26.67;13.30;;;;;;;6.05;100.00;100481.21;5062295;57;1140913;-73
2023/11/15 19:17:34;;;;;;;28.30;13.07;;;;;;;5.98;100.00;100485.97;4939054;58;1141040;-74
2023/11/15 19:22:40;;;;;;;29.40;12.70;;;;;;;5.93;100.00;100493.29;5096876;55;1143095;-74
2023/11/15 19:27:47;;;;;;;75.28;29.12;;;;;;;5.92;100.00;100498.16;5041298;56;1142952;-74
2023/11/15 19:32:53;;;;;;;88.27;39.17;;;;;;;5.90;100.00;100500.02;5061768;57;1143007;-74
2023/11/15 19:37:59;;;;;;;134.07;57.93;;;;;;;5.86;100.00;100493.69;5041168;57;1140789;-74
2023/11/15 19:43:04;;;;;;;161.63;64.10;;;;;;;5.71;100.00;100501.98;5085923;56;1143035;-74
2023/11/15 19:48:11;;;;;;;121.93;47.40;;;;;;;5.63;100.00;100514.72;5146935;56;1142921;-75
2023/11/15 19:53:17;;;;;;;132.83;51.63;;;;;;;5.57;100.00;100511.97;5136479;56;1142862;-74
2023/11/15 19:58:22;;;;;;;130.60;54.10;;;;;;;5.54;100.00;100515.22;5137335;56;1145281;-74
2023/11/15 20:03:28;;;;;;;127.40;53.23;;;;;;;5.48;100.00;100522.99;5156240;55;1144825;-74
2023/11/15 20:08:34;;;;;;;174.07;79.90;;;;;;;5.34;100.00;100527.32;5137665;55;1142879;-74
2023/11/15 20:13:42;;;;;;;109.03;49.17;;;;;;;5.32;100.00;100519.53;5138631;55;1142802;-73
2023/11/15 20:18:47;;;;;;;125.37;55.50;;;;;;;5.28;100.00;100521.48;5137941;55;1143046;-74
2023/11/15 20:23:54;;;;;;;101.87;45.73;;;;;;;5.24;100.00;100525.19;5157676;55;1142958;-74
2023/11/15 20:28:59;;;;;;;100.42;45.00;;;;;;;5.13;100.00;100526.26;5137275;55;1142903;-75
2023/11/15 20:34:05;;;;;;;84.40;41.35;;;;;;;4.97;100.00;100529.80;5136985;55;1143187;-75
2023/11/15 20:39:11;;;;;;;78.70;38.60;;;;;;;4.88;100.00;100539.86;5158472;56;1141106;-75
2023/11/15 20:44:17;;;;;;;91.67;46.10;;;;;;;4.90;100.00;100535.82;5137778;56;1143114;-74
2023/11/15 20:49:22;;;;;;;91.57;47.23;;;;;;;4.89;100.00;100543.30;5132364;56;1141060;-73
2023/11/15 20:54:29;;;;;;;105.17;40.93;;;;;;;4.78;100.00;100554.83;5071642;56;1140523;-72
2023/11/15 20:59:34;;;;;;;99.93;45.47;;;;;;;4.72;100.00;100559.09;5074895;56;1142779;-72
2023/11/15 21:04:40;;;;;;;128.00;57.17;;;;;;;4.66;100.00;100564.19;5137865;56;1140984;-72
2023/11/15 21:09:47;;;;;;;108.10;44.63;;;;;;;4.58;100.00;100565.06;5137888;56;1142990;-72
2023/11/15 21:14:53;;;;;;;86.50;32.27;;;;;;;4.53;100.00;100562.67;5157429;56;1143017;-72
2023/11/15 21:19:58;;;;;;;73.62;38.38;;;;;;;4.40;100.00;100559.00;5120743;55;1141007;-72
2023/11/15 21:25:05;;;;;;;83.07;38.23;;;;;;;4.43;100.00;100570.60;5138494;55;1140923;-72
2023/11/15 21:30:12;;;;;;;96.13;42.23;;;;;;;4.40;100.00;100568.16;5151846;55;1140779;-72
2023/11/15 21:35:19;;;;;;;84.27;30.87;;;;;;;4.17;100.00;100581.56;5124026;55;1140796;-73
2023/11/15 21:40:26;;;;;;;298.30;95.57;;;;;;;4.02;100.00;100574.02;5112619;55;1141080;-72
2023/11/15 21:45:31;;;;;;;44.83;18.75;;;;;;;3.93;100.00;100583.64;5099615;56;1143363;-73
2023/11/15 21:50:37;;;;;;;72.80;29.67;;;;;;;3.89;100.00;100585.55;5109615;56;1140798;-72
2023/11/15 21:55:43;;;;;;;52.13;26.03;;;;;;;3.91;100.00;100595.94;5129208;56;1140849;-72
2023/11/15 22:00:48;;;;;;;53.75;22.73;;;;;;;3.81;100.00;100598.17;5126754;56;1141049;-72
2023/11/15 22:05:54;;;;;;;51.43;22.80;;;;;;;3.67;100.00;100601.88;5147744;56;1143224;-72
2023/11/15 22:11:00;;;;;;;58.08;24.05;;;;;;;3.60;100.00;100597.03;5089517;56;1141000;-72
2023/11/15 22:16:16;;;;;;;46.57;21.57;;;;;;;3.56;100.00;100602.86;5033814;56;1140904;-72
2023/11/15 22:21:23;;;;;;;80.60;33.03;;;;;;;3.47;100.00;100604.61;5147314;56;1141115;-72
2023/11/15 22:26:29;;;;;;;102.83;41.07;;;;;;;3.48;100.00;100616.31;5095172;56;1140862;-72
2023/11/15 22:31:36;;;;;;;102.17;37.73;;;;;;;3.55;100.00;100615.55;4990856;57;1143050;-73
2023/11/15 22:36:42;;;;;;;70.67;27.13;;;;;;;3.60;100.00;100620.11;5140732;56;1143520;-72
2023/11/15 22:41:47;;;;;;;83.77;31.50;;;;;;;3.53;100.00;100620.84;5161095;56;1140963;-72
2023/11/15 22:46:53;;;;;;;88.17;33.00;;;;;;;3.43;100.00;100622.66;5140908;56;1140820;-73
2023/11/15 22:51:59;;;;;;;77.20;26.37;;;;;;;3.33;100.00;100625.33;5124896;56;1140773;-72
2023/11/15 22:57:04;;;;;;;80.85;27.35;;;;;;;3.33;100.00;100630.09;5147579;56;1140902;-73
2023/11/15 23:02:10;;;;;;;91.04;26.96;;;;;;;3.38;100.00;100623.33;5125972;56;1140925;-72